Portada
METAR-TAF:

METAR-TAF

Aeropuertos :

Foggia, Italia

latitud: 41-25-58N, longitud: 015-32-06E, altitud: 81 m

Observación

El informe se hizo hace 7 horas y 0 minutos, a las 14:50 UTC
Viento 4 kt del este-sureste
Temperatura 13°C
Humedad 72%
Presión 1019 hPa
Visibilidad 10 km o más
Escasas nubes a una altura de 5000 ft

METAR: LIBF 211450Z 11004KT 9999 FEW050 13/08 Q1019

Hora: 22:50 (21:50 UTC)


TAF: falta

Observaciones y pronósticos meteorológicos de más de 4000 aeropuertos (mensajes METAR y TAF).

Los puntos amarillos y rojos representan las estaciones disponibles.

Ponga el ratón en el punto deseado para ver el nombre de la estación.

Haga clic para ver las observaciones y los pronósticos meteorológicos.

Para cambiar el mapa : haga clic en los botones verdes con una cruz de color negro para hacer un zoom, en el botón verde con un guión para alejar o en las flechas verdes para mapas adyacentes.


METAR-TAF: